Stoke-sub-Hamdon, United Kingdom
Current Conditions -  °F | °C
As of 7:50 AM on Sunday 23 Nov 2014 (Local Time) from EGDY Reporting Station
Overcast Overcast  
Wind Chill: 44°   Ceiling: 9000
Heat Index: 46°   Visibility: 6mi
Dew Point: 45°   Wind: 6mph
Humidity: 93%   Direction: 320°NW
Pressure: 30.03"   Gusts: NA
Location:  50.94°N, 2.76°W
Report Text: EGDY 230750Z AUTO 32005KT 9999 FEW050/// OVC090/// 08/07 Q1017 RERA
Loading
Personal Weather Stations






























Interactive Weather Map New forecast layout! Learn more

10-Day Weather Forecast

Advertisements
Track Severe Weather on mobile